sensor_id;sensor_type;location;lat;lon;timestamp;pressure;altitude;pressure_sealevel;temperature;humidity
45941;BME280;31858;46.008;8.978;2023-05-23T00:02:04;94442.78;;;16.47;100.00
45941;BME280;31858;46.008;8.978;2023-05-23T00:12:07;94439.25;;;16.30;100.00
45941;BME280;31858;46.008;8.978;2023-05-23T00:22:11;94429.06;;;16.42;100.00
45941;BME280;31858;46.008;8.978;2023-05-23T00:32:15;94419.00;;;16.22;100.00
45941;BME280;31858;46.008;8.978;2023-05-23T00:42:17;94408.63;;;16.01;100.00
45941;BME280;31858;46.008;8.978;2023-05-23T00:52:19;94417.03;;;16.03;100.00
45941;BME280;31858;46.008;8.978;2023-05-23T01:02:22;94398.16;;;16.07;100.00
45941;BME280;31858;46.008;8.978;2023-05-23T01:12:27;94395.66;;;15.96;100.00
45941;BME280;31858;46.008;8.978;2023-05-23T01:22:59;94387.69;;;16.12;100.00
45941;BME280;31858;46.008;8.978;2023-05-23T01:33:07;94380.69;;;16.18;100.00
45941;BME280;31858;46.008;8.978;2023-05-23T01:43:09;94377.59;;;15.96;100.00
45941;BME280;31858;46.008;8.978;2023-05-23T01:53:15;94366.78;;;15.77;100.00
45941;BME280;31858;46.008;8.978;2023-05-23T02:03:18;94371.84;;;15.71;100.00
45941;BME280;31858;46.008;8.978;2023-05-23T02:13:21;94358.66;;;15.57;100.00
45941;BME280;31858;46.008;8.978;2023-05-23T02:23:22;94358.28;;;15.55;100.00
45941;BME280;31858;46.008;8.978;2023-05-23T02:33:25;94353.47;;;15.43;100.00
45941;BME280;31858;46.008;8.978;2023-05-23T02:43:27;94351.97;;;15.42;100.00
45941;BME280;31858;46.008;8.978;2023-05-23T02:53:30;94356.72;;;15.30;100.00
45941;BME280;31858;46.008;8.978;2023-05-23T03:03:32;94349.72;;;15.37;100.00
45941;BME280;31858;46.008;8.978;2023-05-23T03:13:35;94349.69;;;15.40;100.00
45941;BME280;31858;46.008;8.978;2023-05-23T03:23:36;94356.34;;;15.55;100.00
45941;BME280;31858;46.008;8.978;2023-05-23T03:33:39;94347.19;;;15.53;100.00
45941;BME280;31858;46.008;8.978;2023-05-23T03:43:41;94350.19;;;15.31;100.00
45941;BME280;31858;46.008;8.978;2023-05-23T03:53:44;94363.22;;;15.33;100.00
45941;BME280;31858;46.008;8.978;2023-05-23T04:03:45;94370.94;;;15.27;100.00
45941;BME280;31858;46.008;8.978;2023-05-23T04:13:48;94370.09;;;15.34;100.00
45941;BME280;31858;46.008;8.978;2023-05-23T04:23:51;94369.06;;;15.24;100.00
45941;BME280;31858;46.008;8.978;2023-05-23T04:33:54;94366.94;;;15.12;100.00
45941;BME280;31858;46.008;8.978;2023-05-23T04:43:57;94375.91;;;15.29;100.00
45941;BME280;31858;46.008;8.978;2023-05-23T04:54:00;94375.81;;;15.36;100.00
45941;BME280;31858;46.008;8.978;2023-05-23T05:04:01;94383.22;;;15.28;100.00
45941;BME280;31858;46.008;8.978;2023-05-23T05:14:04;94371.25;;;15.33;100.00
45941;BME280;31858;46.008;8.978;2023-05-23T05:24:06;94373.69;;;15.24;100.00
45941;BME280;31858;46.008;8.978;2023-05-23T05:34:10;94378.66;;;14.95;100.00
45941;BME280;31858;46.008;8.978;2023-05-23T05:44:12;94385.66;;;14.85;100.00
45941;BME280;31858;46.008;8.978;2023-05-23T05:54:15;94385.47;;;15.03;100.00
45941;BME280;31858;46.008;8.978;2023-05-23T06:04:17;94382.13;;;15.22;100.00
45941;BME280;31858;46.008;8.978;2023-05-23T06:14:20;94379.34;;;15.29;100.00
45941;BME280;31858;46.008;8.978;2023-05-23T06:24:21;94373.13;;;15.36;100.00
45941;BME280;31858;46.008;8.978;2023-05-23T06:34:24;94378.19;;;15.30;100.00
45941;BME280;31858;46.008;8.978;2023-05-23T06:44:26;94359.34;;;15.61;100.00
45941;BME280;31858;46.008;8.978;2023-05-23T06:54:29;94363.84;;;15.68;100.00
45941;BME280;31858;46.008;8.978;2023-05-23T07:04:31;94365.72;;;15.71;100.00
45941;BME280;31858;46.008;8.978;2023-05-23T07:14:33;94364.56;;;15.45;100.00
45941;BME280;31858;46.008;8.978;2023-05-23T07:24:38;94369.03;;;15.55;100.00
45941;BME280;31858;46.008;8.978;2023-05-23T07:34:41;94370.63;;;15.76;100.00
45941;BME280;31858;46.008;8.978;2023-05-23T07:44:42;94367.09;;;15.55;100.00
45941;BME280;31858;46.008;8.978;2023-05-23T07:54:46;94359.66;;;15.90;100.00
45941;BME280;31858;46.008;8.978;2023-05-23T08:04:47;94351.13;;;15.95;100.00
45941;BME280;31858;46.008;8.978;2023-05-23T08:14:50;94349.47;;;16.24;100.00
45941;BME280;31858;46.008;8.978;2023-05-23T08:24:52;94348.00;;;16.63;100.00
45941;BME280;31858;46.008;8.978;2023-05-23T08:34:55;94354.16;;;16.83;100.00
45941;BME280;31858;46.008;8.978;2023-05-23T08:44:57;94340.13;;;17.28;100.00
45941;BME280;31858;46.008;8.978;2023-05-23T08:55:00;94342.16;;;17.56;100.00
45941;BME280;31858;46.008;8.978;2023-05-23T09:05:03;94347.59;;;18.05;100.00
45941;BME280;31858;46.008;8.978;2023-05-23T09:15:07;94348.84;;;17.84;100.00
45941;BME280;31858;46.008;8.978;2023-05-23T09:25:09;94341.78;;;17.90;100.00
45941;BME280;31858;46.008;8.978;2023-05-23T09:35:12;94348.44;;;18.02;100.00
45941;BME280;31858;46.008;8.978;2023-05-23T09:45:15;94335.03;;;18.27;100.00
45941;BME280;31858;46.008;8.978;2023-05-23T09:55:18;94323.69;;;18.49;100.00
45941;BME280;31858;46.008;8.978;2023-05-23T10:05:30;94319.94;;;18.88;100.00
45941;BME280;31858;46.008;8.978;2023-05-23T10:15:37;94308.53;;;19.09;100.00
45941;BME280;31858;46.008;8.978;2023-05-23T10:25:41;94310.59;;;19.31;100.00
45941;BME280;31858;46.008;8.978;2023-05-23T10:35:52;94300.50;;;19.69;100.00
45941;BME280;31858;46.008;8.978;2023-05-23T10:45:55;94292.88;;;20.02;100.00
45941;BME280;31858;46.008;8.978;2023-05-23T10:55:58;94281.19;;;20.40;100.00
45941;BME280;31858;46.008;8.978;2023-05-23T11:06:00;94279.63;;;20.82;100.00
45941;BME280;31858;46.008;8.978;2023-05-23T11:16:22;94272.09;;;21.08;100.00
45941;BME280;31858;46.008;8.978;2023-05-23T11:26:31;94258.72;;;21.14;100.00
45941;BME280;31858;46.008;8.978;2023-05-23T11:36:34;94257.34;;;21.40;100.00
45941;BME280;31858;46.008;8.978;2023-05-23T11:46:37;94252.44;;;21.66;100.00
45941;BME280;31858;46.008;8.978;2023-05-23T11:56:40;94238.47;;;21.86;100.00
45941;BME280;31858;46.008;8.978;2023-05-23T12:06:45;94236.34;;;21.90;100.00
45941;BME280;31858;46.008;8.978;2023-05-23T12:16:51;94229.56;;;22.13;100.00
45941;BME280;31858;46.008;8.978;2023-05-23T12:26:54;94227.31;;;22.39;100.00
45941;BME280;31858;46.008;8.978;2023-05-23T12:36:59;94223.06;;;22.56;100.00
45941;BME280;31858;46.008;8.978;2023-05-23T12:47:03;94216.06;;;22.73;100.00
45941;BME280;31858;46.008;8.978;2023-05-23T12:57:06;94195.78;;;23.02;92.53
45941;BME280;31858;46.008;8.978;2023-05-23T13:07:07;94196.31;;;23.15;78.62
45941;BME280;31858;46.008;8.978;2023-05-23T13:17:10;94187.72;;;23.40;100.00
45941;BME280;31858;46.008;8.978;2023-05-23T13:27:12;94197.28;;;23.36;92.13
45941;BME280;31858;46.008;8.978;2023-05-23T13:37:15;94192.91;;;23.62;84.73
45941;BME280;31858;46.008;8.978;2023-05-23T13:47:16;94180.34;;;24.03;89.40
45941;BME280;31858;46.008;8.978;2023-05-23T13:57:19;94184.47;;;24.37;73.59
45941;BME280;31858;46.008;8.978;2023-05-23T14:07:21;94186.25;;;24.55;77.68
45941;BME280;31858;46.008;8.978;2023-05-23T14:17:24;94179.53;;;24.71;72.50
45941;BME280;31858;46.008;8.978;2023-05-23T14:27:26;94184.53;;;24.28;87.30
45941;BME280;31858;46.008;8.978;2023-05-23T14:37:29;94199.44;;;23.80;100.00
45941;BME280;31858;46.008;8.978;2023-05-23T14:47:30;94195.31;;;23.03;100.00
45941;BME280;31858;46.008;8.978;2023-05-23T14:57:33;94205.38;;;22.61;100.00
45941;BME280;31858;46.008;8.978;2023-05-23T15:07:35;94214.34;;;22.34;100.00
45941;BME280;31858;46.008;8.978;2023-05-23T15:17:39;94207.25;;;22.36;100.00
45941;BME280;31858;46.008;8.978;2023-05-23T15:27:40;94198.53;;;22.14;100.00
45941;BME280;31858;46.008;8.978;2023-05-23T15:37:45;94205.00;;;21.71;100.00
45941;BME280;31858;46.008;8.978;2023-05-23T15:47:47;94213.09;;;21.43;67.37
45941;BME280;31858;46.008;8.978;2023-05-23T15:57:49;94197.09;;;21.36;94.64
45941;BME280;31858;46.008;8.978;2023-05-23T16:07:51;94205.81;;;21.31;100.00
45941;BME280;31858;46.008;8.978;2023-05-23T16:17:54;94230.34;;;20.97;100.00
45941;BME280;31858;46.008;8.978;2023-05-23T16:27:56;94225.44;;;21.04;100.00
45941;BME280;31858;46.008;8.978;2023-05-23T16:37:59;94216.28;;;20.71;100.00
45941;BME280;31858;46.008;8.978;2023-05-23T16:48:00;94216.69;;;20.38;100.00
45941;BME280;31858;46.008;8.978;2023-05-23T16:58:03;94225.47;;;20.30;100.00
45941;BME280;31858;46.008;8.978;2023-05-23T17:08:05;94236.97;;;20.21;100.00
45941;BME280;31858;46.008;8.978;2023-05-23T17:18:08;94230.44;;;20.09;100.00
45941;BME280;31858;46.008;8.978;2023-05-23T17:28:09;94219.81;;;20.15;100.00
45941;BME280;31858;46.008;8.978;2023-05-23T17:38:13;94207.03;;;19.94;100.00
45941;BME280;31858;46.008;8.978;2023-05-23T17:48:15;94214.34;;;20.28;100.00
45941;BME280;31858;46.008;8.978;2023-05-23T17:58:18;94222.56;;;20.24;100.00
45941;BME280;31858;46.008;8.978;2023-05-23T18:08:20;94222.56;;;20.02;100.00
45941;BME280;31858;46.008;8.978;2023-05-23T18:18:23;94233.13;;;20.09;100.00
45941;BME280;31858;46.008;8.978;2023-05-23T18:28:25;94244.34;;;19.86;100.00
45941;BME280;31858;46.008;8.978;2023-05-23T18:38:28;94250.38;;;19.55;100.00
45941;BME280;31858;46.008;8.978;2023-05-23T18:48:30;94265.09;;;19.42;100.00
45941;BME280;31858;46.008;8.978;2023-05-23T18:58:33;94265.00;;;18.95;100.00
45941;BME280;31858;46.008;8.978;2023-05-23T19:08:34;94282.94;;;18.59;100.00
45941;BME280;31858;46.008;8.978;2023-05-23T19:18:37;94300.66;;;18.32;100.00
45941;BME280;31858;46.008;8.978;2023-05-23T19:28:39;94320.81;;;18.27;100.00
45941;BME280;31858;46.008;8.978;2023-05-23T19:38:42;94341.25;;;18.41;100.00
45941;BME280;31858;46.008;8.978;2023-05-23T19:48:44;94355.16;;;18.39;100.00
45941;BME280;31858;46.008;8.978;2023-05-23T19:58:47;94366.34;;;18.54;100.00
45941;BME280;31858;46.008;8.978;2023-05-23T20:08:48;94366.56;;;18.31;100.00
45941;BME280;31858;46.008;8.978;2023-05-23T20:18:51;94360.38;;;18.46;100.00
45941;BME280;31858;46.008;8.978;2023-05-23T20:28:53;94382.13;;;18.39;100.00
45941;BME280;31858;46.008;8.978;2023-05-23T20:38:56;94387.69;;;18.19;100.00
45941;BME280;31858;46.008;8.978;2023-05-23T20:48:58;94381.97;;;17.85;100.00
45941;BME280;31858;46.008;8.978;2023-05-23T20:59:01;94383.53;;;17.66;100.00
45941;BME280;31858;46.008;8.978;2023-05-23T21:09:03;94392.16;;;17.41;100.00
45941;BME280;31858;46.008;8.978;2023-05-23T21:19:06;94384.78;;;17.25;100.00
45941;BME280;31858;46.008;8.978;2023-05-23T21:29:08;94383.09;;;17.15;100.00
45941;BME280;31858;46.008;8.978;2023-05-23T21:39:11;94383.50;;;17.14;100.00
45941;BME280;31858;46.008;8.978;2023-05-23T21:49:13;94380.31;;;17.19;100.00
45941;BME280;31858;46.008;8.978;2023-05-23T21:59:16;94379.28;;;17.13;100.00
45941;BME280;31858;46.008;8.978;2023-05-23T22:09:18;94376.59;;;17.13;100.00
45941;BME280;31858;46.008;8.978;2023-05-23T22:19:21;94371.22;;;16.93;100.00
45941;BME280;31858;46.008;8.978;2023-05-23T22:29:25;94362.63;;;16.82;100.00
45941;BME280;31858;46.008;8.978;2023-05-23T22:39:28;94356.34;;;16.88;100.00
45941;BME280;31858;46.008;8.978;2023-05-23T22:49:30;94356.16;;;16.79;100.00
45941;BME280;31858;46.008;8.978;2023-05-23T22:59:33;94358.72;;;16.67;100.00
45941;BME280;31858;46.008;8.978;2023-05-23T23:09:34;94351.34;;;16.71;100.00
45941;BME280;31858;46.008;8.978;2023-05-23T23:19:37;94354.97;;;16.60;100.00
45941;BME280;31858;46.008;8.978;2023-05-23T23:29:40;94347.53;;;16.68;100.00
45941;BME280;31858;46.008;8.978;2023-05-23T23:39:43;94348.22;;;16.72;100.00
45941;BME280;31858;46.008;8.978;2023-05-23T23:49:45;94334.00;;;16.52;100.00
45941;BME280;31858;46.008;8.978;2023-05-23T23:59:48;94333.84;;;16.59;100.00
